Time;durP1;ratioP1;P1;durP2;ratioP2;P2;SDS_P1;SDS_P2;PMS_P1;PMS_P2;Temp;Humidity;BMP_temperature;BMP_pressure;BME280_temperature;BME280_humidity;BME280_pressure;Samples;Min_cycle;Max_cycle;Signal;HPM_P1;HPM_P2
2023/02/06 00:01:35;;;;;;;22.17;13.80;;;;;;;;;;5052163;28;20366;-69
2023/02/06 00:04:00;;;;;;;24.35;16.00;;;;;;;;;;5048015;28;20052;-71
2023/02/06 00:06:25;;;;;;;24.88;14.38;;;;;;;;;;5043475;28;20484;-71
2023/02/06 00:08:50;;;;;;;23.17;14.13;;;;;;;;;;5042145;28;20026;-69
2023/02/06 00:11:16;;;;;;;25.93;14.87;;;;;;;;;;5043034;28;20287;-71
2023/02/06 00:13:42;;;;;;;26.00;16.60;;;;;;;;;;5046228;28;20272;-67
2023/02/06 00:16:15;;;;;;;25.25;15.90;;;;;;;;;;5055938;28;20090;-71
2023/02/06 00:18:41;;;;;;;24.30;15.32;;;;;;;;;;5058031;28;20025;-70
2023/02/06 00:21:06;;;;;;;27.37;15.93;;;;;;;;;;5053588;28;20042;-71
2023/02/06 00:23:31;;;;;;;27.10;16.67;;;;;;;;;;5051858;28;20762;-71
2023/02/06 00:25:56;;;;;;;27.80;17.17;;;;;;;;;;5056343;28;20786;-70
2023/02/06 00:28:21;;;;;;;25.97;14.93;;;;;;;;;;5049644;28;20276;-71
2023/02/06 00:30:47;;;;;;;29.03;18.07;;;;;;;;;;5056170;28;20048;-72
2023/02/06 00:33:12;;;;;;;29.75;17.23;;;;;;;;;;5052798;28;20275;-79
2023/02/06 00:35:37;;;;;;;28.98;17.58;;;;;;;;;;5056929;28;20075;-76
2023/02/06 00:38:05;;;;;;;29.67;17.67;;;;;;;;;;5050405;28;20112;-77
2023/02/06 00:40:30;;;;;;;26.80;17.13;;;;;;;;;;5056081;28;20277;-77
2023/02/06 00:42:55;;;;;;;25.57;17.10;;;;;;;;;;5050743;28;20020;-77
2023/02/06 00:45:21;;;;;;;26.80;17.10;;;;;;;;;;5056627;28;20276;-76
2023/02/06 00:47:46;;;;;;;28.27;16.93;;;;;;;;;;5051520;28;20359;-76
2023/02/06 00:50:11;;;;;;;28.80;18.00;;;;;;;;;;5047769;28;20355;-76
2023/02/06 00:52:36;;;;;;;28.80;18.23;;;;;;;;;;5050987;28;20276;-69
2023/02/06 00:55:01;;;;;;;29.53;19.07;;;;;;;;;;5049045;28;20673;-70
2023/02/06 00:57:27;;;;;;;33.10;20.40;;;;;;;;;;5049828;28;20841;-70
2023/02/06 00:59:53;;;;;;;30.60;17.17;;;;;;;;;;5052679;28;21102;-70
2023/02/06 01:02:18;;;;;;;32.60;18.02;;;;;;;;;;5055230;28;20356;-69
2023/02/06 01:04:43;;;;;;;28.40;17.90;;;;;;;;;;5054849;28;20013;-70
2023/02/06 01:07:08;;;;;;;29.43;17.30;;;;;;;;;;5050097;28;20368;-70
2023/02/06 01:09:33;;;;;;;28.17;17.17;;;;;;;;;;5053045;28;20381;-76
2023/02/06 01:11:59;;;;;;;32.22;19.13;;;;;;;;;;5053501;28;20426;-72
2023/02/06 01:14:24;;;;;;;28.80;18.43;;;;;;;;;;5050335;28;20092;-71
2023/02/06 01:16:49;;;;;;;35.42;19.60;;;;;;;;;;5051520;28;20330;-70
2023/02/06 01:19:14;;;;;;;33.40;19.67;;;;;;;;;;5050529;28;20024;-70
2023/02/06 01:21:39;;;;;;;35.83;20.25;;;;;;;;;;5050017;28;20279;-70
2023/02/06 01:24:05;;;;;;;31.50;18.73;;;;;;;;;;5052010;28;20021;-71
2023/02/06 01:26:30;;;;;;;28.08;17.70;;;;;;;;;;5052759;28;20287;-71
2023/02/06 01:28:55;;;;;;;35.60;19.53;;;;;;;;;;5048440;28;20100;-68
2023/02/06 01:31:22;;;;;;;28.98;18.73;;;;;;;;;;5051448;28;20314;-79
2023/02/06 01:33:48;;;;;;;31.02;19.60;;;;;;;;;;5050329;28;20486;-79
2023/02/06 01:36:13;;;;;;;34.03;19.85;;;;;;;;;;5049778;28;20037;-80
2023/02/06 01:38:38;;;;;;;32.35;19.77;;;;;;;;;;5053921;28;20032;-81
2023/02/06 01:41:05;;;;;;;33.13;20.65;;;;;;;;;;5050645;28;20040;-80
2023/02/06 01:43:38;;;;;;;35.55;19.33;;;;;;;;;;5054156;28;20099;-81
2023/02/06 01:46:03;;;;;;;33.85;20.85;;;;;;;;;;5057691;28;20184;-72
2023/02/06 01:48:34;;;;;;;35.50;21.00;;;;;;;;;;5048841;28;20492;-79
2023/02/06 01:51:01;;;;;;;34.20;19.98;;;;;;;;;;5054913;28;20081;-71
2023/02/06 01:53:27;;;;;;;36.42;20.98;;;;;;;;;;5045481;28;20024;-71
2023/02/06 01:55:53;;;;;;;39.72;23.42;;;;;;;;;;5050401;28;20051;-71
2023/02/06 01:58:21;;;;;;;34.38;20.55;;;;;;;;;;5050777;28;20017;-73
2023/02/06 02:00:46;;;;;;;31.38;18.52;;;;;;;;;;5051439;28;20032;-70
2023/02/06 02:03:12;;;;;;;39.08;21.13;;;;;;;;;;5049601;28;20017;-70
2023/02/06 02:05:38;;;;;;;36.92;21.40;;;;;;;;;;5053714;28;20070;-68
2023/02/06 02:08:29;;;;;;;37.40;21.33;;;;;;;;;;5030351;28;20487;-77
2023/02/06 02:10:55;;;;;;;39.78;19.33;;;;;;;;;;5049117;28;20461;-76
2023/02/06 02:13:20;;;;;;;40.15;23.15;;;;;;;;;;5050575;28;20126;-76
2023/02/06 02:15:48;;;;;;;41.20;22.17;;;;;;;;;;5049188;28;20033;-77
2023/02/06 02:18:16;;;;;;;35.88;21.35;;;;;;;;;;5049485;28;20264;-76
2023/02/06 02:20:52;;;;;;;43.25;23.17;;;;;;;;;;5048143;28;20025;-79
2023/02/06 02:23:41;;;;;;;42.35;22.85;;;;;;;;;;5045948;28;20024;-69
2023/02/06 02:26:15;;;;;;;38.83;21.98;;;;;;;;;;5036833;28;20029;-74
2023/02/06 02:28:49;;;;;;;41.03;22.15;;;;;;;;;;5044976;28;20021;-71
2023/02/06 02:31:18;;;;;;;37.75;22.65;;;;;;;;;;5049500;28;20028;-70
2023/02/06 02:33:57;;;;;;;40.80;23.88;;;;;;;;;;5051900;28;20106;-70
2023/02/06 02:36:41;;;;;;;38.88;22.33;;;;;;;;;;5046750;28;20581;-72
2023/02/06 02:39:06;;;;;;;39.75;22.25;;;;;;;;;;5045883;28;20078;-71
2023/02/06 02:41:41;;;;;;;38.37;21.80;;;;;;;;;;5053959;28;20021;-68
2023/02/06 02:44:11;;;;;;;43.08;23.27;;;;;;;;;;5047033;28;20040;-68
2023/02/06 02:46:36;;;;;;;42.00;22.38;;;;;;;;;;5046412;28;20021;-68
2023/02/06 02:49:07;;;;;;;43.23;22.60;;;;;;;;;;5033513;28;20032;-69
2023/02/06 02:51:34;;;;;;;45.70;23.45;;;;;;;;;;5047392;28;20411;-69
2023/02/06 02:53:59;;;;;;;35.95;21.40;;;;;;;;;;5049477;28;20046;-69
2023/02/06 02:56:25;;;;;;;37.35;21.83;;;;;;;;;;5045505;28;20087;-69
2023/02/06 02:58:53;;;;;;;38.60;22.08;;;;;;;;;;5051944;28;20483;-68
2023/02/06 03:01:24;;;;;;;38.47;21.40;;;;;;;;;;5049351;28;20029;-78
2023/02/06 03:03:51;;;;;;;34.72;21.67;;;;;;;;;;5050771;28;20073;-68
2023/02/06 03:06:35;;;;;;;43.25;23.25;;;;;;;;;;5049255;28;20021;-69
2023/02/06 03:09:06;;;;;;;38.78;22.58;;;;;;;;;;5045258;28;20177;-69
2023/02/06 03:11:32;;;;;;;46.63;23.08;;;;;;;;;;5047801;28;20052;-70
2023/02/06 03:13:57;;;;;;;41.95;22.67;;;;;;;;;;5050658;28;20025;-70
2023/02/06 03:16:25;;;;;;;40.50;22.20;;;;;;;;;;5048430;28;20029;-70
2023/02/06 03:19:03;;;;;;;44.05;22.27;;;;;;;;;;5053715;28;20028;-70
2023/02/06 03:21:29;;;;;;;38.30;20.73;;;;;;;;;;5048376;28;20067;-80
2023/02/06 03:23:56;;;;;;;41.50;22.25;;;;;;;;;;5052924;28;20281;-79
2023/02/06 03:26:24;;;;;;;41.22;22.65;;;;;;;;;;5050807;28;20063;-77
2023/02/06 03:28:54;;;;;;;36.33;22.02;;;;;;;;;;5029205;28;21482;-78
2023/02/06 03:31:23;;;;;;;40.88;24.08;;;;;;;;;;5042371;28;20041;-80
2023/02/06 03:33:53;;;;;;;44.38;24.38;;;;;;;;;;5048200;28;20456;-78
2023/02/06 03:36:18;;;;;;;38.25;20.27;;;;;;;;;;5047404;28;20424;-70
2023/02/06 03:38:45;;;;;;;40.53;22.52;;;;;;;;;;5051913;28;20035;-78
2023/02/06 03:41:11;;;;;;;40.17;24.00;;;;;;;;;;5028982;28;20032;-70
2023/02/06 03:43:37;;;;;;;39.22;23.45;;;;;;;;;;5048964;28;20049;-71
2023/02/06 03:46:03;;;;;;;47.85;22.90;;;;;;;;;;5045601;28;20059;-70
2023/02/06 03:48:32;;;;;;;41.83;23.67;;;;;;;;;;5050065;28;20164;-70
2023/02/06 03:51:00;;;;;;;44.20;24.50;;;;;;;;;;5053984;28;20024;-69
2023/02/06 03:53:25;;;;;;;40.92;22.02;;;;;;;;;;5053024;28;20017;-69
2023/02/06 03:55:52;;;;;;;39.67;22.38;;;;;;;;;;5054589;28;20029;-69
2023/02/06 03:58:18;;;;;;;40.70;21.23;;;;;;;;;;5049294;28;20036;-80
2023/02/06 04:00:44;;;;;;;37.93;22.77;;;;;;;;;;5054594;28;20282;-78
2023/02/06 04:03:10;;;;;;;35.83;21.13;;;;;;;;;;5050439;28;20354;-78
2023/02/06 04:05:35;;;;;;;36.13;21.40;;;;;;;;;;5050960;28;20120;-78
2023/02/06 04:08:01;;;;;;;37.80;21.88;;;;;;;;;;5056221;28;20032;-78
2023/02/06 04:10:26;;;;;;;39.40;22.73;;;;;;;;;;5050879;28;20173;-77
2023/02/06 04:12:51;;;;;;;37.17;21.95;;;;;;;;;;5051886;28;20631;-69
2023/02/06 04:15:16;;;;;;;42.37;21.50;;;;;;;;;;5051850;28;20119;-78
2023/02/06 04:17:41;;;;;;;32.03;19.90;;;;;;;;;;5050786;28;20278;-67
2023/02/06 04:20:07;;;;;;;36.43;21.67;;;;;;;;;;5049879;28;20320;-66
2023/02/06 04:22:33;;;;;;;36.45;19.63;;;;;;;;;;5047622;28;20423;-68
2023/02/06 04:24:58;;;;;;;34.17;20.15;;;;;;;;;;5058259;28;20024;-67
2023/02/06 04:27:23;;;;;;;35.70;20.00;;;;;;;;;;5050773;28;20020;-70
2023/02/06 04:29:49;;;;;;;34.08;18.50;;;;;;;;;;5028716;28;20278;-66
2023/02/06 04:32:14;;;;;;;32.50;19.10;;;;;;;;;;5055140;28;20044;-66
2023/02/06 04:34:39;;;;;;;35.63;19.83;;;;;;;;;;5034097;28;20659;-69
2023/02/06 04:37:05;;;;;;;34.50;20.70;;;;;;;;;;5034791;28;20306;-72
2023/02/06 04:39:30;;;;;;;38.90;22.08;;;;;;;;;;5048534;28;20283;-72
2023/02/06 04:41:56;;;;;;;34.45;21.40;;;;;;;;;;5056127;28;20029;-69
2023/02/06 04:44:21;;;;;;;46.17;22.50;;;;;;;;;;5050481;28;20459;-68
2023/02/06 04:46:47;;;;;;;37.55;22.40;;;;;;;;;;5052979;28;20286;-70
2023/02/06 04:49:12;;;;;;;40.55;22.33;;;;;;;;;;5050770;28;20028;-70
2023/02/06 04:51:38;;;;;;;34.25;20.30;;;;;;;;;;5049638;28;20029;-72
2023/02/06 04:54:03;;;;;;;35.43;19.57;;;;;;;;;;5043476;28;20017;-68
2023/02/06 04:56:28;;;;;;;35.10;20.63;;;;;;;;;;5032615;28;20335;-66
2023/02/06 04:58:53;;;;;;;30.17;19.70;;;;;;;;;;5055751;28;20417;-67
2023/02/06 05:01:19;;;;;;;35.00;22.33;;;;;;;;;;5047156;28;20033;-70
2023/02/06 05:03:44;;;;;;;29.60;18.25;;;;;;;;;;5054050;28;20496;-66
2023/02/06 05:06:10;;;;;;;32.55;19.83;;;;;;;;;;5051785;28;20506;-67
2023/02/06 05:08:35;;;;;;;31.50;19.83;;;;;;;;;;5033394;28;20022;-76
2023/02/06 05:11:00;;;;;;;34.42;19.73;;;;;;;;;;5052447;28;20280;-71
2023/02/06 05:13:25;;;;;;;31.70;20.73;;;;;;;;;;5050666;28;20423;-73
2023/02/06 05:15:50;;;;;;;28.60;18.92;;;;;;;;;;5049412;28;20291;-71
2023/02/06 05:18:16;;;;;;;30.10;19.75;;;;;;;;;;5052295;28;20456;-71
2023/02/06 05:20:41;;;;;;;31.33;21.75;;;;;;;;;;5051355;28;20571;-71
2023/02/06 05:23:07;;;;;;;30.77;20.65;;;;;;;;;;5055057;28;20025;-73
2023/02/06 05:25:33;;;;;;;34.92;19.50;;;;;;;;;;5053949;28;20383;-73
2023/02/06 05:27:58;;;;;;;27.88;19.25;;;;;;;;;;5029038;28;20020;-70
2023/02/06 05:30:23;;;;;;;30.00;19.03;;;;;;;;;;5043585;28;20032;-71
2023/02/06 05:32:49;;;;;;;29.58;19.08;;;;;;;;;;5051340;28;20825;-72
2023/02/06 05:35:14;;;;;;;31.23;19.17;;;;;;;;;;5051027;28;20043;-71
2023/02/06 05:37:39;;;;;;;28.77;18.63;;;;;;;;;;5048827;28;20035;-71
2023/02/06 05:40:05;;;;;;;28.90;18.77;;;;;;;;;;5047346;28;20283;-72
2023/02/06 05:42:30;;;;;;;29.48;19.48;;;;;;;;;;5047968;28;20283;-71
2023/02/06 05:44:55;;;;;;;32.72;19.17;;;;;;;;;;5051687;28;20661;-75
2023/02/06 05:47:21;;;;;;;26.98;17.98;;;;;;;;;;5048061;28;20107;-71
2023/02/06 05:49:47;;;;;;;28.43;18.20;;;;;;;;;;5046972;28;20055;-76
2023/02/06 05:52:12;;;;;;;27.48;18.58;;;;;;;;;;5052041;28;20291;-77
2023/02/06 05:54:37;;;;;;;31.98;19.65;;;;;;;;;;5048120;28;20082;-74
2023/02/06 05:57:03;;;;;;;30.83;19.03;;;;;;;;;;5055177;28;20021;-75
2023/02/06 05:59:28;;;;;;;31.27;19.70;;;;;;;;;;5048835;28;20079;-75
2023/02/06 06:01:53;;;;;;;28.67;18.10;;;;;;;;;;5044749;28;20371;-74
2023/02/06 06:04:18;;;;;;;27.38;18.73;;;;;;;;;;5051157;28;20924;-71
2023/02/06 06:06:44;;;;;;;29.70;17.50;;;;;;;;;;5061593;28;20240;-69
2023/02/06 06:09:09;;;;;;;26.05;17.95;;;;;;;;;;5037623;28;20679;-68
2023/02/06 06:11:34;;;;;;;33.43;19.83;;;;;;;;;;5047111;28;20072;-65
2023/02/06 06:13:59;;;;;;;28.08;17.35;;;;;;;;;;5048629;28;20325;-66
2023/02/06 06:16:24;;;;;;;27.63;18.23;;;;;;;;;;5029405;28;20037;-68
2023/02/06 06:18:50;;;;;;;27.13;17.42;;;;;;;;;;5053419;28;20268;-68
2023/02/06 06:21:15;;;;;;;30.65;20.10;;;;;;;;;;5057292;28;20017;-67
2023/02/06 06:23:40;;;;;;;29.47;19.47;;;;;;;;;;5054471;28;20561;-69
2023/02/06 06:26:06;;;;;;;34.13;20.65;;;;;;;;;;5049957;28;20279;-76
2023/02/06 06:28:33;;;;;;;28.85;19.80;;;;;;;;;;5054421;28;20020;-76
2023/02/06 06:31:00;;;;;;;30.83;18.63;;;;;;;;;;5043168;28;20052;-75
2023/02/06 06:33:25;;;;;;;26.13;18.40;;;;;;;;;;5054201;28;20056;-75
2023/02/06 06:35:50;;;;;;;27.37;17.17;;;;;;;;;;5048037;28;20102;-76
2023/02/06 06:38:15;;;;;;;25.20;17.77;;;;;;;;;;5042009;28;20037;-77
2023/02/06 06:40:41;;;;;;;25.50;17.17;;;;;;;;;;5051636;28;20310;-72
2023/02/06 06:43:06;;;;;;;24.67;16.73;;;;;;;;;;5048301;28;20280;-71
2023/02/06 06:45:31;;;;;;;26.20;15.50;;;;;;;;;;5049541;28;20276;-70
2023/02/06 06:47:56;;;;;;;27.03;17.20;;;;;;;;;;5050383;28;20267;-71
2023/02/06 06:50:22;;;;;;;24.45;16.75;;;;;;;;;;5050416;28;20417;-72
2023/02/06 06:52:47;;;;;;;28.40;16.75;;;;;;;;;;5059123;28;20395;-73
2023/02/06 06:55:12;;;;;;;25.17;16.73;;;;;;;;;;5052647;28;20105;-70
2023/02/06 06:57:37;;;;;;;21.40;14.90;;;;;;;;;;5058205;28;20322;-72
2023/02/06 07:00:03;;;;;;;24.95;16.05;;;;;;;;;;5041372;28;20677;-72
2023/02/06 07:02:28;;;;;;;27.40;17.58;;;;;;;;;;5049880;28;20028;-71
2023/02/06 07:04:54;;;;;;;26.97;16.87;;;;;;;;;;5047264;28;20020;-71
2023/02/06 07:07:19;;;;;;;23.73;15.52;;;;;;;;;;5049003;28;20682;-72
2023/02/06 07:09:44;;;;;;;24.98;16.55;;;;;;;;;;5048368;28;20116;-80
2023/02/06 07:12:10;;;;;;;27.27;16.80;;;;;;;;;;5050410;28;20024;-88
2023/02/06 07:14:35;;;;;;;26.02;15.93;;;;;;;;;;5049402;28;20936;-80
2023/02/06 07:17:00;;;;;;;27.07;16.57;;;;;;;;;;5027195;28;20145;-78
2023/02/06 07:19:25;;;;;;;22.48;13.68;;;;;;;;;;5047678;28;20267;-78
2023/02/06 07:21:51;;;;;;;22.92;15.85;;;;;;;;;;5047475;28;20025;-71
2023/02/06 07:24:16;;;;;;;23.37;14.90;;;;;;;;;;5045334;28;20018;-72
2023/02/06 07:26:42;;;;;;;23.17;14.23;;;;;;;;;;5050371;28;20634;-73
2023/02/06 07:29:07;;;;;;;25.15;15.25;;;;;;;;;;5045213;28;20032;-71
2023/02/06 07:31:32;;;;;;;24.40;13.25;;;;;;;;;;5049314;28;20421;-72
2023/02/06 07:33:58;;;;;;;21.33;13.90;;;;;;;;;;5056604;28;20028;-72
2023/02/06 07:36:23;;;;;;;23.05;14.95;;;;;;;;;;5048636;28;20303;-70
2023/02/06 07:38:48;;;;;;;25.60;13.40;;;;;;;;;;5050425;28;20527;-79
2023/02/06 07:41:14;;;;;;;22.70;13.80;;;;;;;;;;5030064;28;20371;-79
2023/02/06 07:43:40;;;;;;;22.38;13.43;;;;;;;;;;5049476;28;20484;-76
2023/02/06 07:46:05;;;;;;;20.90;12.82;;;;;;;;;;5041941;28;20028;-80
2023/02/06 07:48:30;;;;;;;19.77;12.88;;;;;;;;;;5049449;28;21882;-80
2023/02/06 07:50:56;;;;;;;23.58;12.68;;;;;;;;;;5047013;28;20056;-78
2023/02/06 07:53:21;;;;;;;20.92;12.60;;;;;;;;;;5050680;28;20024;-75
2023/02/06 07:55:47;;;;;;;18.55;11.73;;;;;;;;;;5058234;28;20040;-74
2023/02/06 07:58:12;;;;;;;20.03;12.40;;;;;;;;;;5060232;28;20036;-75
2023/02/06 08:00:38;;;;;;;23.73;13.75;;;;;;;;;;5030771;28;20451;-77
2023/02/06 08:03:03;;;;;;;19.42;12.32;;;;;;;;;;5050519;28;20476;-75
2023/02/06 08:05:29;;;;;;;18.90;11.80;;;;;;;;;;5051027;28;20386;-75
2023/02/06 08:07:54;;;;;;;20.90;13.77;;;;;;;;;;5056761;28;20021;-76
2023/02/06 08:10:19;;;;;;;18.43;12.40;;;;;;;;;;5051580;28;20104;-78
2023/02/06 08:12:45;;;;;;;21.77;11.53;;;;;;;;;;5055433;28;20267;-72
2023/02/06 08:15:10;;;;;;;19.37;12.43;;;;;;;;;;5058039;28;20311;-75
2023/02/06 08:17:35;;;;;;;22.97;12.27;;;;;;;;;;5056823;28;20360;-75
2023/02/06 08:20:00;;;;;;;22.40;13.33;;;;;;;;;;5048092;28;20276;-76
2023/02/06 08:22:27;;;;;;;18.10;11.80;;;;;;;;;;5058142;28;20650;-75
2023/02/06 08:24:52;;;;;;;23.17;12.02;;;;;;;;;;5061437;28;20013;-77
2023/02/06 08:27:17;;;;;;;20.10;11.23;;;;;;;;;;5053120;28;20021;-78
2023/02/06 08:29:42;;;;;;;20.40;11.30;;;;;;;;;;5047305;28;20679;-76
2023/02/06 08:32:09;;;;;;;16.77;10.10;;;;;;;;;;5047290;28;20013;-70
2023/02/06 08:34:34;;;;;;;17.02;11.57;;;;;;;;;;5047282;28;20021;-71
2023/02/06 08:36:59;;;;;;;16.67;10.50;;;;;;;;;;5056648;28;20503;-71
2023/02/06 08:39:24;;;;;;;16.50;10.13;;;;;;;;;;5042556;28;20484;-71
2023/02/06 08:41:50;;;;;;;18.37;10.73;;;;;;;;;;5070003;28;20797;-69
2023/02/06 08:44:16;;;;;;;16.90;11.10;;;;;;;;;;5062511;28;20738;-72
2023/02/06 08:46:42;;;;;;;18.25;10.60;;;;;;;;;;5052141;28;20311;-72
2023/02/06 08:49:10;;;;;;;24.27;12.68;;;;;;;;;;5058679;28;20323;-70
2023/02/06 08:51:36;;;;;;;18.23;11.05;;;;;;;;;;5054676;28;20033;-72
2023/02/06 08:54:05;;;;;;;18.08;11.30;;;;;;;;;;5037877;28;20032;-72
2023/02/06 08:56:31;;;;;;;18.75;11.43;;;;;;;;;;5058510;28;20029;-72
2023/02/06 08:58:58;;;;;;;18.17;10.10;;;;;;;;;;5059115;28;20025;-70
2023/02/06 09:01:24;;;;;;;16.10;9.25;;;;;;;;;;5052901;28;20107;-71
2023/02/06 09:03:49;;;;;;;16.13;9.88;;;;;;;;;;5052072;28;20178;-72
2023/02/06 09:06:14;;;;;;;16.85;8.52;;;;;;;;;;5047571;28;20060;-71
2023/02/06 09:08:40;;;;;;;14.55;8.27;;;;;;;;;;5058886;28;20029;-78
2023/02/06 09:11:09;;;;;;;14.40;7.93;;;;;;;;;;5054033;28;20104;-79
2023/02/06 09:13:35;;;;;;;13.95;8.38;;;;;;;;;;5065457;28;20023;-77
2023/02/06 09:16:00;;;;;;;17.27;9.00;;;;;;;;;;5053326;28;20029;-76
2023/02/06 09:18:26;;;;;;;15.60;8.88;;;;;;;;;;5049506;28;20118;-79
2023/02/06 09:21:00;;;;;;;12.35;7.50;;;;;;;;;;5051384;28;20565;-78
2023/02/06 09:23:26;;;;;;;15.85;8.40;;;;;;;;;;5061189;28;20031;-75
2023/02/06 09:25:51;;;;;;;18.17;9.77;;;;;;;;;;5049705;28;20375;-72
2023/02/06 09:28:16;;;;;;;23.73;9.37;;;;;;;;;;5054825;28;20267;-71
2023/02/06 09:30:42;;;;;;;15.52;8.80;;;;;;;;;;5052236;28;20649;-70
2023/02/06 09:33:07;;;;;;;13.60;8.80;;;;;;;;;;5067831;28;20066;-73
2023/02/06 09:35:32;;;;;;;18.80;8.37;;;;;;;;;;5056218;28;20341;-73
2023/02/06 09:37:57;;;;;;;13.77;8.00;;;;;;;;;;5051575;28;20307;-73
2023/02/06 09:40:25;;;;;;;11.57;6.63;;;;;;;;;;5051419;28;20020;-74
2023/02/06 09:42:52;;;;;;;11.70;6.20;;;;;;;;;;5064009;28;20315;-72
2023/02/06 09:45:20;;;;;;;14.20;5.90;;;;;;;;;;5056988;28;20039;-72
2023/02/06 09:47:48;;;;;;;10.18;5.68;;;;;;;;;;5034244;28;20044;-75
2023/02/06 09:50:22;;;;;;;10.65;5.55;;;;;;;;;;5049578;28;20095;-77
2023/02/06 09:53:01;;;;;;;14.27;5.82;;;;;;;;;;5045398;28;20057;-76
2023/02/06 09:55:46;;;;;;;9.90;5.63;;;;;;;;;;5053358;28;20032;-78
2023/02/06 09:58:30;;;;;;;14.43;7.07;;;;;;;;;;5061319;28;20066;-76
2023/02/06 10:00:55;;;;;;;14.00;7.53;;;;;;;;;;5048859;28;20462;-76
2023/02/06 10:03:30;;;;;;;11.90;6.40;;;;;;;;;;5062254;28;20088;-73
2023/02/06 10:06:04;;;;;;;10.25;6.53;;;;;;;;;;5049638;28;20524;-72
2023/02/06 10:08:29;;;;;;;10.70;6.15;;;;;;;;;;5032011;28;20035;-72
2023/02/06 10:10:55;;;;;;;14.27;6.63;;;;;;;;;;5053858;28;20651;-74
2023/02/06 10:13:39;;;;;;;10.90;6.07;;;;;;;;;;5062498;28;20028;-73
2023/02/06 10:16:28;;;;;;;10.30;5.10;;;;;;;;;;5055590;28;20044;-73
2023/02/06 10:18:55;;;;;;;9.88;5.07;;;;;;;;;;5040857;28;20029;-72
2023/02/06 10:21:30;;;;;;;10.23;5.10;;;;;;;;;;5058151;28;20024;-73
2023/02/06 10:24:00;;;;;;;10.77;5.15;;;;;;;;;;5061071;28;20527;-78
2023/02/06 10:26:27;;;;;;;11.55;5.55;;;;;;;;;;5057118;28;20112;-79
2023/02/06 10:28:54;;;;;;;9.60;4.95;;;;;;;;;;5052758;28;20575;-76
2023/02/06 10:31:20;;;;;;;12.07;5.53;;;;;;;;;;5052348;28;20482;-74
2023/02/06 10:33:51;;;;;;;16.47;5.53;;;;;;;;;;5033377;28;20028;-75
2023/02/06 10:36:31;;;;;;;9.13;4.80;;;;;;;;;;5053623;28;20028;-74
2023/02/06 10:39:14;;;;;;;9.48;4.45;;;;;;;;;;5052031;28;20048;-75
2023/02/06 10:41:58;;;;;;;7.07;3.90;;;;;;;;;;5050595;28;20029;-70
2023/02/06 10:44:27;;;;;;;4.95;3.38;;;;;;;;;;5053431;28;20039;-76
2023/02/06 10:46:53;;;;;;;7.18;3.38;;;;;;;;;;5052235;28;20025;-75
2023/02/06 10:49:32;;;;;;;7.63;3.78;;;;;;;;;;5049760;28;20104;-77
2023/02/06 10:52:00;;;;;;;8.13;3.90;;;;;;;;;;5053895;28;20023;-76
2023/02/06 10:54:32;;;;;;;8.60;4.40;;;;;;;;;;5049396;28;20033;-77
2023/02/06 10:56:58;;;;;;;9.43;4.22;;;;;;;;;;5055150;28;20036;-77
2023/02/06 10:59:42;;;;;;;7.43;4.10;;;;;;;;;;5032556;28;20024;-72
2023/02/06 11:02:24;;;;;;;8.00;4.05;;;;;;;;;;5047532;28;20048;-68
2023/02/06 11:04:52;;;;;;;8.00;4.57;;;;;;;;;;5055713;28;20043;-68
2023/02/06 11:07:23;;;;;;;7.57;3.65;;;;;;;;;;5053764;28;20463;-68
2023/02/06 11:09:49;;;;;;;7.55;3.58;;;;;;;;;;5045773;28;20047;-69
2023/02/06 11:12:23;;;;;;;6.10;3.70;;;;;;;;;;5050480;28;20017;-67
2023/02/06 11:14:49;;;;;;;8.25;3.97;;;;;;;;;;5052519;28;20021;-67
2023/02/06 11:17:17;;;;;;;7.72;3.50;;;;;;;;;;5051008;28;20025;-71
2023/02/06 11:19:45;;;;;;;7.25;4.22;;;;;;;;;;5035395;28;20025;-80
2023/02/06 11:22:12;;;;;;;9.25;3.50;;;;;;;;;;5027470;28;20055;-79
2023/02/06 11:24:38;;;;;;;7.07;3.17;;;;;;;;;;5054506;28;20048;-79
2023/02/06 11:27:23;;;;;;;7.13;3.28;;;;;;;;;;5060108;28;20475;-75
2023/02/06 11:29:49;;;;;;;7.80;4.13;;;;;;;;;;5049172;28;20040;-75
2023/02/06 11:32:31;;;;;;;5.88;2.92;;;;;;;;;;5060646;28;20538;-77
2023/02/06 11:34:57;;;;;;;7.15;3.58;;;;;;;;;;5049408;28;20025;-72
2023/02/06 11:37:36;;;;;;;11.13;4.65;;;;;;;;;;5053763;28;20057;-81
2023/02/06 11:40:13;;;;;;;7.78;3.33;;;;;;;;;;5052568;28;20471;-78
2023/02/06 11:42:39;;;;;;;8.00;3.50;;;;;;;;;;5061517;28;20056;-76
2023/02/06 11:45:17;;;;;;;9.80;3.42;;;;;;;;;;5050563;28;20408;-77
2023/02/06 11:47:42;;;;;;;6.45;3.25;;;;;;;;;;5051622;28;20017;-76
2023/02/06 11:50:13;;;;;;;8.97;3.70;;;;;;;;;;5052002;28;20434;-76
2023/02/06 11:52:39;;;;;;;5.95;3.67;;;;;;;;;;5053370;28;20267;-75
2023/02/06 11:55:05;;;;;;;8.23;3.80;;;;;;;;;;5056600;28;20048;-77
2023/02/06 11:57:32;;;;;;;7.43;3.50;;;;;;;;;;5054328;28;20538;-72
2023/02/06 12:00:24;;;;;;;7.78;3.50;;;;;;;;;;5043754;28;20032;-70
2023/02/06 12:02:51;;;;;;;6.05;3.38;;;;;;;;;;5043302;28;20095;-70
2023/02/06 12:05:17;;;;;;;9.95;4.40;;;;;;;;;;5045755;28;20087;-71
2023/02/06 12:07:51;;;;;;;5.85;3.40;;;;;;;;;;5047197;28;20091;-72
2023/02/06 12:10:18;;;;;;;8.80;3.80;;;;;;;;;;5046017;28;20491;-70
2023/02/06 12:13:10;;;;;;;8.73;3.83;;;;;;;;;;5025546;28;20031;-73
2023/02/06 12:15:41;;;;;;;8.75;4.35;;;;;;;;;;5042090;28;20084;-70
2023/02/06 12:18:24;;;;;;;9.23;4.13;;;;;;;;;;5050036;28;20067;-71
2023/02/06 12:21:00;;;;;;;8.13;3.72;;;;;;;;;;5049868;28;20098;-71
2023/02/06 12:23:37;;;;;;;7.45;4.10;;;;;;;;;;5040552;28;20099;-73
2023/02/06 12:26:05;;;;;;;8.63;4.47;;;;;;;;;;5050572;28;20033;-73
2023/02/06 12:28:49;;;;;;;9.90;4.05;;;;;;;;;;5059358;28;20027;-70
2023/02/06 12:31:18;;;;;;;8.73;4.78;;;;;;;;;;5060040;28;20511;-72
2023/02/06 12:34:10;;;;;;;10.70;5.72;;;;;;;;;;5047701;28;20021;-68
2023/02/06 12:36:38;;;;;;;9.73;5.30;;;;;;;;;;5031008;28;20051;-68
2023/02/06 12:39:06;;;;;;;7.90;4.30;;;;;;;;;;5050341;28;20092;-69
2023/02/06 12:41:34;;;;;;;6.97;4.30;;;;;;;;;;5049753;28;20052;-69
2023/02/06 12:44:05;;;;;;;9.13;4.43;;;;;;;;;;5031728;28;20036;-68
2023/02/06 12:46:30;;;;;;;8.80;4.78;;;;;;;;;;5031265;28;20116;-69
2023/02/06 12:49:04;;;;;;;10.65;4.25;;;;;;;;;;5051051;28;20538;-69
2023/02/06 12:51:35;;;;;;;9.02;5.22;;;;;;;;;;5051844;28;20496;-70
2023/02/06 12:54:03;;;;;;;8.43;4.75;;;;;;;;;;5048461;28;20024;-71
2023/02/06 12:56:46;;;;;;;13.68;5.20;;;;;;;;;;5047630;28;20040;-72
2023/02/06 12:59:11;;;;;;;10.15;5.85;;;;;;;;;;5049385;28;20052;-71
2023/02/06 13:01:55;;;;;;;9.07;4.77;;;;;;;;;;5048368;28;20048;-73
2023/02/06 13:04:23;;;;;;;12.27;5.90;;;;;;;;;;5045050;28;20108;-71
2023/02/06 13:06:53;;;;;;;11.27;4.93;;;;;;;;;;5050215;28;20025;-77
2023/02/06 13:09:28;;;;;;;8.75;5.53;;;;;;;;;;5045142;28;20103;-78
2023/02/06 13:12:04;;;;;;;12.43;5.00;;;;;;;;;;5052261;28;20017;-71
2023/02/06 13:14:29;;;;;;;11.85;5.93;;;;;;;;;;5048201;28;20036;-71
2023/02/06 13:16:57;;;;;;;8.87;5.03;;;;;;;;;;5049946;28;20115;-72
2023/02/06 13:19:23;;;;;;;10.30;4.82;;;;;;;;;;5047612;28;20283;-72
2023/02/06 13:22:12;;;;;;;7.65;4.70;;;;;;;;;;5051875;28;20472;-71
2023/02/06 13:24:41;;;;;;;9.02;4.60;;;;;;;;;;5048339;28;20036;-72
2023/02/06 13:27:06;;;;;;;6.88;3.92;;;;;;;;;;5029388;28;20027;-71
2023/02/06 13:29:32;;;;;;;7.70;3.73;;;;;;;;;;5049630;28;20029;-72
2023/02/06 13:32:13;;;;;;;7.05;3.63;;;;;;;;;;5050306;28;20028;-73
2023/02/06 13:34:41;;;;;;;6.60;3.63;;;;;;;;;;5048607;28;20025;-72
2023/02/06 13:37:25;;;;;;;6.38;3.42;;;;;;;;;;5047621;28;20120;-72
2023/02/06 13:40:09;;;;;;;7.78;4.18;;;;;;;;;;5045001;28;20025;-73
2023/02/06 13:42:55;;;;;;;6.10;3.50;;;;;;;;;;5046180;28;20488;-73
2023/02/06 13:45:40;;;;;;;10.75;4.70;;;;;;;;;;5051214;28;20020;-74
2023/02/06 13:48:20;;;;;;;6.80;3.78;;;;;;;;;;5046737;28;20067;-73
2023/02/06 13:51:18;;;;;;;9.65;4.00;;;;;;;;;;5042531;28;20095;-71
2023/02/06 13:53:46;;;;;;;5.90;3.05;;;;;;;;;;5017387;28;20055;-72
2023/02/06 13:56:27;;;;;;;8.18;3.67;;;;;;;;;;5052270;28;20112;-72
2023/02/06 13:58:54;;;;;;;7.88;2.85;;;;;;;;;;5050968;28;20039;-74
2023/02/06 14:01:21;;;;;;;8.48;3.35;;;;;;;;;;5047728;28;20062;-73
2023/02/06 14:03:48;;;;;;;4.22;3.03;;;;;;;;;;5053982;28;20108;-74
2023/02/06 14:06:40;;;;;;;6.18;2.90;;;;;;;;;;5048614;28;20025;-81
2023/02/06 14:09:06;;;;;;;7.95;3.55;;;;;;;;;;5047817;28;20070;-79
2023/02/06 14:14:42;;;;;;;6.53;3.75;;;;;;;;;;5046477;28;20041;-81
2023/02/06 14:17:36;;;;;;;8.88;4.35;;;;;;;;;;5026813;28;20036;-81
2023/02/06 14:20:19;;;;;;;8.55;3.80;;;;;;;;;;5047593;28;20017;-72
2023/02/06 14:22:49;;;;;;;7.95;3.03;;;;;;;;;;5047328;28;20025;-75
2023/02/06 14:25:32;;;;;;;7.43;3.35;;;;;;;;;;5049741;28;20032;-73
2023/02/06 14:28:03;;;;;;;7.82;3.38;;;;;;;;;;5053130;28;20033;-72
2023/02/06 14:30:34;;;;;;;8.00;3.55;;;;;;;;;;5046774;28;20029;-72
2023/02/06 14:32:59;;;;;;;7.00;3.25;;;;;;;;;;5046436;28;20025;-74
2023/02/06 14:35:43;;;;;;;6.47;3.20;;;;;;;;;;5046287;28;20302;-71
2023/02/06 14:38:08;;;;;;;6.28;2.80;;;;;;;;;;5045448;28;20024;-72